Time;durP1;ratioP1;P1;durP2;ratioP2;P2;SDS_P1;SDS_P2;PMS_P1;PMS_P2;Temp;Humidity;BMP_temperature;BMP_pressure;BME280_temperature;BME280_humidity;BME280_pressure;Samples;Min_cycle;Max_cycle;Signal;HPM_P1;HPM_P2
2020/12/06 00:02:26;;;;;;;27.70;19.55;;;;;;;6.64;83.97;100275.05;1688175;82;25845;-79
2020/12/06 00:04:52;;;;;;;27.77;19.02;;;;;;;6.65;83.92;100267.59;1717950;82;26506;-79
2020/12/06 00:07:21;;;;;;;29.52;21.75;;;;;;;6.68;83.86;100268.59;1718058;82;25600;-80
2020/12/06 00:09:47;;;;;;;29.55;21.27;;;;;;;6.69;83.73;100269.44;1703118;82;26377;-79
2020/12/06 00:12:13;;;;;;;30.50;19.90;;;;;;;6.71;83.70;100275.28;1696905;82;26608;-80
2020/12/06 00:14:39;;;;;;;30.23;22.17;;;;;;;6.70;83.62;100270.58;1696333;82;25672;-80
2020/12/06 00:17:05;;;;;;;27.52;19.65;;;;;;;6.65;83.61;100275.38;1693666;82;26232;-80
2020/12/06 00:19:32;;;;;;;27.67;18.92;;;;;;;6.64;83.69;100282.84;1700691;82;26281;-79
2020/12/06 00:21:58;;;;;;;25.62;18.25;;;;;;;6.60;83.65;100274.52;1706282;82;26478;-79
2020/12/06 00:24:25;;;;;;;27.58;19.00;;;;;;;6.61;83.69;100283.12;1693259;82;25822;-80
2020/12/06 00:26:52;;;;;;;24.30;18.75;;;;;;;6.60;83.67;100287.50;1695455;82;25796;-79
2020/12/06 00:29:19;;;;;;;25.60;18.73;;;;;;;6.59;83.63;100285.04;1699002;82;26876;-80
2020/12/06 00:31:50;;;;;;;27.05;18.23;;;;;;;6.58;83.65;100285.52;1690316;82;25870;-80
2020/12/06 00:34:16;;;;;;;24.10;18.65;;;;;;;6.59;83.70;100285.84;1655582;83;26548;-81
2020/12/06 00:36:42;;;;;;;30.08;19.10;;;;;;;6.61;83.70;100284.42;1654997;84;25811;-80
2020/12/06 00:39:09;;;;;;;28.10;19.80;;;;;;;6.64;83.68;100288.03;1655582;84;25793;-80
2020/12/06 00:41:35;;;;;;;27.70;19.98;;;;;;;6.66;83.71;100290.83;1647210;84;26312;-79
2020/12/06 00:44:01;;;;;;;28.80;20.50;;;;;;;6.69;83.71;100283.72;1654662;84;25856;-80
2020/12/06 00:46:28;;;;;;;31.60;22.13;;;;;;;6.70;83.67;100286.64;1654604;84;25450;-80
2020/12/06 00:48:54;;;;;;;26.05;19.12;;;;;;;6.69;83.70;100294.11;1651562;84;26256;-80
2020/12/06 00:51:21;;;;;;;28.15;19.52;;;;;;;6.65;83.71;100293.07;1651193;84;25803;-80
2020/12/06 00:53:47;;;;;;;25.90;19.32;;;;;;;6.63;83.82;100297.61;1650692;84;25798;-80
2020/12/06 00:56:21;;;;;;;25.60;16.73;;;;;;;6.64;83.86;100289.33;1645474;84;25981;-80
2020/12/06 00:58:48;;;;;;;27.25;19.05;;;;;;;6.66;84.00;100286.94;1649684;84;25815;-79
2020/12/06 01:01:15;;;;;;;28.12;18.27;;;;;;;6.69;83.87;100296.70;1653250;84;25909;-79
2020/12/06 01:03:42;;;;;;;26.55;19.35;;;;;;;6.69;83.92;100278.05;1651306;84;25760;-79
2020/12/06 01:06:15;;;;;;;27.65;18.67;;;;;;;6.71;83.90;100280.48;1652836;84;26030;-79
2020/12/06 01:08:43;;;;;;;24.70;17.25;;;;;;;6.72;83.85;100278.24;1652289;84;26467;-79
2020/12/06 01:11:14;;;;;;;26.33;18.55;;;;;;;6.70;83.90;100268.47;1653550;84;25685;-80
2020/12/06 01:13:41;;;;;;;27.65;19.35;;;;;;;6.71;83.87;100272.69;1643668;85;25855;-79
2020/12/06 01:16:08;;;;;;;27.77;20.90;;;;;;;6.68;83.89;100276.39;1658305;84;25646;-80
2020/12/06 01:18:34;;;;;;;24.45;17.92;;;;;;;6.68;83.89;100285.48;1654364;84;25827;-80
2020/12/06 01:21:00;;;;;;;26.93;18.32;;;;;;;6.66;84.02;100279.62;1653127;84;25906;-80
2020/12/06 01:23:27;;;;;;;27.75;19.07;;;;;;;6.67;84.01;100283.36;1655890;84;25715;-79
2020/12/06 01:25:53;;;;;;;26.07;16.37;;;;;;;6.66;84.02;100289.53;1651498;84;26503;-79
2020/12/06 01:28:19;;;;;;;27.77;18.45;;;;;;;6.63;84.03;100288.52;1655272;84;25799;-80
2020/12/06 01:30:45;;;;;;;26.20;18.07;;;;;;;6.68;84.03;100293.27;1656232;84;26785;-80
2020/12/06 01:33:13;;;;;;;23.73;17.20;;;;;;;6.67;84.09;100295.05;1676098;83;25673;-80
2020/12/06 01:35:40;;;;;;;28.02;19.32;;;;;;;6.70;84.12;100285.34;1684116;82;25746;-80
2020/12/06 01:38:06;;;;;;;24.12;17.57;;;;;;;6.73;84.03;100288.47;1700221;82;25800;-79
2020/12/06 01:40:40;;;;;;;25.57;18.02;;;;;;;6.75;84.00;100287.86;1691138;82;25711;-80
2020/12/06 01:43:11;;;;;;;28.40;20.77;;;;;;;6.75;83.95;100282.66;1691761;82;26578;-79
2020/12/06 01:45:41;;;;;;;26.65;19.70;;;;;;;6.76;83.92;100284.77;1727892;82;25729;-79
2020/12/06 01:48:09;;;;;;;28.73;20.70;;;;;;;6.76;83.91;100286.88;1696603;82;25935;-79
2020/12/06 01:50:39;;;;;;;28.02;19.35;;;;;;;6.73;83.99;100280.68;1690746;82;25779;-79
2020/12/06 01:53:07;;;;;;;25.12;17.20;;;;;;;6.70;83.96;100274.95;1693166;82;25744;-80
2020/12/06 01:55:35;;;;;;;24.95;18.52;;;;;;;6.69;83.95;100273.34;1693824;82;25798;-79
2020/12/06 01:58:08;;;;;;;29.42;18.45;;;;;;;6.68;84.01;100276.39;1697733;82;25844;-79
2020/12/06 02:00:36;;;;;;;27.42;17.90;;;;;;;6.70;84.06;100277.07;1688047;82;25717;-79
2020/12/06 02:03:05;;;;;;;26.57;18.30;;;;;;;6.72;84.05;100266.55;1687246;82;25737;-79
2020/12/06 02:05:32;;;;;;;28.70;18.27;;;;;;;6.71;84.05;100261.84;1683594;82;26275;-78
2020/12/06 02:08:00;;;;;;;31.02;18.62;;;;;;;6.72;84.05;100260.06;1688167;82;26436;-79
2020/12/06 02:10:29;;;;;;;29.02;19.73;;;;;;;6.74;84.08;100262.02;1690491;82;25665;-79
2020/12/06 02:12:56;;;;;;;27.15;19.02;;;;;;;6.75;84.06;100260.59;1691067;82;25496;-78
2020/12/06 02:15:23;;;;;;;28.32;19.67;;;;;;;6.76;84.15;100269.19;1695060;82;26242;-79
2020/12/06 02:17:51;;;;;;;29.10;20.60;;;;;;;6.76;84.15;100270.48;1700488;82;25721;-79
2020/12/06 02:20:20;;;;;;;26.93;17.73;;;;;;;6.73;84.11;100267.70;1695846;82;26555;-79
2020/12/06 02:22:46;;;;;;;26.45;18.52;;;;;;;6.74;84.11;100262.02;1691253;82;25728;-78
2020/12/06 02:25:13;;;;;;;27.75;18.85;;;;;;;6.71;84.15;100260.55;1695911;82;25707;-78
2020/12/06 02:27:40;;;;;;;25.25;18.12;;;;;;;6.71;84.18;100262.30;1693469;82;25728;-79
2020/12/06 02:30:06;;;;;;;25.08;17.52;;;;;;;6.70;84.26;100273.17;1693278;82;26260;-79
2020/12/06 02:32:32;;;;;;;26.57;17.55;;;;;;;6.69;84.23;100270.73;1698933;82;25993;-79
2020/12/06 02:34:59;;;;;;;24.05;18.02;;;;;;;6.69;84.29;100269.44;1696308;82;25666;-79
2020/12/06 02:37:25;;;;;;;24.70;16.77;;;;;;;6.70;84.25;100265.38;1693531;82;25740;-79
2020/12/06 02:39:51;;;;;;;25.20;18.45;;;;;;;6.74;84.21;100268.50;1696328;82;26273;-79
2020/12/06 02:42:19;;;;;;;27.58;18.55;;;;;;;6.78;84.23;100265.98;1691265;82;25719;-79
2020/12/06 02:44:45;;;;;;;27.40;18.40;;;;;;;6.81;84.16;100266.98;1693590;82;25799;-79
2020/12/06 02:47:11;;;;;;;29.50;20.40;;;;;;;6.78;84.03;100261.59;1699659;82;25491;-79
2020/12/06 02:49:41;;;;;;;26.90;18.20;;;;;;;6.78;84.10;100271.17;1689610;82;25826;-79
2020/12/06 02:52:08;;;;;;;27.30;18.77;;;;;;;6.75;84.07;100274.87;1698115;82;26242;-79
2020/12/06 02:54:35;;;;;;;24.15;17.07;;;;;;;6.72;84.10;100269.16;1694988;82;25864;-79
2020/12/06 02:57:01;;;;;;;24.23;18.57;;;;;;;6.71;84.11;100281.33;1699007;82;25942;-79
2020/12/06 02:59:28;;;;;;;25.48;18.12;;;;;;;6.72;84.17;100277.76;1698769;82;25791;-79
2020/12/06 03:01:54;;;;;;;26.82;18.95;;;;;;;6.75;84.15;100285.26;1697793;82;25705;-80
2020/12/06 03:04:20;;;;;;;26.40;17.15;;;;;;;6.77;84.09;100275.55;1654761;83;25877;-79
2020/12/06 03:06:46;;;;;;;27.50;18.90;;;;;;;6.80;84.07;100286.95;1693151;82;25805;-79
2020/12/06 03:09:13;;;;;;;29.80;18.77;;;;;;;6.78;83.97;100278.48;1690602;82;25810;-79
2020/12/06 03:11:39;;;;;;;30.10;20.15;;;;;;;6.76;84.01;100273.90;1696828;82;25705;-80
2020/12/06 03:14:06;;;;;;;25.30;18.57;;;;;;;6.75;84.06;100277.47;1673334;82;25801;-79
2020/12/06 03:16:33;;;;;;;24.63;18.95;;;;;;;6.75;84.05;100280.55;1686872;82;25742;-79
2020/12/06 03:18:59;;;;;;;25.12;18.50;;;;;;;6.73;84.04;100275.48;1693578;82;26978;-78
2020/12/06 03:21:25;;;;;;;25.65;17.98;;;;;;;6.72;84.07;100277.76;1692468;82;25823;-79
2020/12/06 03:23:52;;;;;;;23.67;16.75;;;;;;;6.72;84.08;100281.66;1692547;82;25934;-80
2020/12/06 03:26:18;;;;;;;24.45;18.15;;;;;;;6.71;84.10;100286.52;1697194;82;25637;-79
2020/12/06 03:28:44;;;;;;;28.07;17.48;;;;;;;6.72;84.09;100289.93;1693171;82;26204;-79
2020/12/06 03:31:11;;;;;;;24.75;17.92;;;;;;;6.72;84.18;100296.42;1695884;82;25798;-80
2020/12/06 03:33:37;;;;;;;27.02;19.48;;;;;;;6.73;84.06;100294.97;1693330;82;25736;-80
2020/12/06 03:36:04;;;;;;;26.33;19.02;;;;;;;6.74;84.07;100302.27;1691569;83;25887;-80
2020/12/06 03:38:31;;;;;;;27.73;19.67;;;;;;;6.71;84.03;100303.41;1687828;82;26753;-80
2020/12/06 03:40:57;;;;;;;24.10;18.32;;;;;;;6.73;84.07;100308.44;1691528;82;25775;-80
2020/12/06 03:43:23;;;;;;;28.35;18.57;;;;;;;6.72;84.03;100306.33;1686723;82;25980;-80
2020/12/06 03:45:50;;;;;;;25.02;17.87;;;;;;;6.73;84.01;100305.35;1692117;82;26382;-80
2020/12/06 03:48:16;;;;;;;25.15;17.77;;;;;;;6.74;83.96;100308.77;1688360;82;25726;-80
2020/12/06 03:50:43;;;;;;;24.92;17.50;;;;;;;6.74;83.97;100303.11;1687572;82;25808;-79
2020/12/06 03:53:09;;;;;;;24.87;17.20;;;;;;;6.74;83.89;100307.01;1692098;82;26642;-80
2020/12/06 03:55:35;;;;;;;24.27;17.15;;;;;;;6.73;83.88;100308.44;1690219;82;25782;-80
2020/12/06 03:58:02;;;;;;;27.67;18.85;;;;;;;6.74;83.90;100303.57;1694044;82;26185;-80
2020/12/06 04:00:29;;;;;;;25.70;18.12;;;;;;;6.72;83.82;100298.53;1688170;82;25848;-80
2020/12/06 04:02:55;;;;;;;28.10;18.55;;;;;;;6.72;83.86;100301.13;1693140;82;26409;-81
2020/12/06 04:05:22;;;;;;;24.20;18.12;;;;;;;6.71;83.81;100311.65;1685646;83;25790;-80
2020/12/06 04:07:49;;;;;;;23.90;17.15;;;;;;;6.71;83.87;100311.65;1687986;82;25851;-80
2020/12/06 04:10:18;;;;;;;26.52;17.70;;;;;;;6.65;83.81;100317.74;1692840;82;26906;-80
2020/12/06 04:12:46;;;;;;;25.75;18.12;;;;;;;6.62;83.88;100312.83;1683281;82;25697;-81
2020/12/06 04:15:12;;;;;;;25.85;17.98;;;;;;;6.63;83.91;100316.27;1686354;83;25520;-80
2020/12/06 04:17:39;;;;;;;24.00;17.15;;;;;;;6.62;83.89;100325.00;1687598;83;26981;-80
2020/12/06 04:20:07;;;;;;;22.35;17.35;;;;;;;6.65;83.89;100325.53;1690139;82;25678;-80
2020/12/06 04:22:33;;;;;;;28.57;17.57;;;;;;;6.66;83.81;100323.78;1687786;82;26540;-79
2020/12/06 04:25:00;;;;;;;26.23;18.05;;;;;;;6.64;83.81;100323.91;1693378;82;25745;-79
2020/12/06 04:27:26;;;;;;;26.35;17.77;;;;;;;6.65;83.80;100320.82;1686959;82;26638;-79
2020/12/06 04:29:52;;;;;;;26.17;18.30;;;;;;;6.65;83.75;100332.02;1675090;83;25842;-80
2020/12/06 04:32:19;;;;;;;24.85;17.80;;;;;;;6.64;83.72;100326.98;1687602;82;25636;-81
2020/12/06 04:34:45;;;;;;;24.67;17.25;;;;;;;6.64;83.73;100328.28;1699169;82;25759;-80
2020/12/06 04:37:13;;;;;;;23.62;16.82;;;;;;;6.63;83.68;100329.25;1682504;83;25766;-80
2020/12/06 04:39:40;;;;;;;21.68;16.07;;;;;;;6.60;83.71;100319.97;1653239;84;25705;-80
2020/12/06 04:42:06;;;;;;;25.20;17.17;;;;;;;6.60;83.64;100332.95;1615721;85;26433;-80
2020/12/06 04:44:33;;;;;;;21.95;15.18;;;;;;;6.60;83.60;100332.11;1664564;83;25796;-80
2020/12/06 04:47:03;;;;;;;22.65;15.98;;;;;;;6.63;83.60;100331.85;1673059;83;25676;-80
2020/12/06 04:49:47;;;;;;;20.15;14.50;;;;;;;6.63;83.55;100333.16;1657142;83;25856;-80
2020/12/06 04:52:17;;;;;;;21.20;16.27;;;;;;;6.61;83.47;100329.38;1681364;82;25786;-79
2020/12/06 04:54:56;;;;;;;23.98;16.87;;;;;;;6.56;83.38;100330.77;1674522;83;25619;-80
2020/12/06 04:57:23;;;;;;;22.07;16.00;;;;;;;6.53;83.46;100334.45;1680670;82;26499;-80
2020/12/06 04:59:52;;;;;;;21.75;15.50;;;;;;;6.48;83.46;100324.96;1682054;83;25749;-80
2020/12/06 05:02:21;;;;;;;21.17;14.23;;;;;;;6.45;83.52;100329.95;1673154;83;25800;-80
2020/12/06 05:04:49;;;;;;;20.72;15.03;;;;;;;6.44;83.47;100325.73;1621571;85;25875;-80
2020/12/06 05:07:18;;;;;;;19.25;13.55;;;;;;;6.45;83.51;100329.14;1667796;84;25772;-80
2020/12/06 05:09:50;;;;;;;20.62;14.63;;;;;;;6.43;83.43;100324.56;1671824;83;25914;-79
2020/12/06 05:12:16;;;;;;;20.20;15.68;;;;;;;6.46;83.44;100328.17;1664819;83;26356;-80
2020/12/06 05:14:43;;;;;;;22.22;16.05;;;;;;;6.44;83.32;100331.41;1684475;83;25687;-80
2020/12/06 05:17:10;;;;;;;27.37;17.92;;;;;;;6.44;83.39;100341.80;1669987;83;25643;-80
2020/12/06 05:19:36;;;;;;;24.05;15.58;;;;;;;6.45;83.43;100339.52;1681410;83;25776;-80
2020/12/06 05:22:03;;;;;;;21.45;15.08;;;;;;;6.41;83.33;100348.08;1681733;83;25733;-79
2020/12/06 05:24:31;;;;;;;21.30;15.78;;;;;;;6.39;83.34;100347.88;1639053;85;25932;-80
2020/12/06 05:26:58;;;;;;;21.97;16.10;;;;;;;6.36;83.42;100355.45;1646191;84;25873;-80
2020/12/06 05:29:24;;;;;;;20.45;15.58;;;;;;;6.36;83.41;100367.62;1633008;85;25802;-80
2020/12/06 05:31:50;;;;;;;21.02;15.25;;;;;;;6.37;83.37;100364.05;1660550;83;25702;-80
2020/12/06 05:34:19;;;;;;;19.15;14.13;;;;;;;6.36;83.28;100365.84;1666654;83;25683;-80
2020/12/06 05:36:45;;;;;;;17.32;14.10;;;;;;;6.34;83.27;100363.85;1619292;84;25884;-80
2020/12/06 05:39:12;;;;;;;17.62;13.83;;;;;;;6.32;83.17;100379.22;1657973;84;25693;-80
2020/12/06 05:41:38;;;;;;;19.82;15.05;;;;;;;6.30;83.10;100375.48;1615971;84;26646;-80
2020/12/06 05:44:06;;;;;;;20.00;14.63;;;;;;;6.29;83.16;100387.28;1660118;83;26601;-80
2020/12/06 05:46:35;;;;;;;20.25;14.90;;;;;;;6.30;83.21;100386.31;1657098;84;25754;-79
2020/12/06 05:49:05;;;;;;;18.48;14.30;;;;;;;6.27;83.14;100383.52;1659814;84;25802;-82
2020/12/06 05:51:32;;;;;;;20.10;14.30;;;;;;;6.25;83.17;100394.53;1659605;84;25689;-81
2020/12/06 05:53:59;;;;;;;19.05;15.00;;;;;;;6.26;83.16;100399.23;1636489;84;26366;-80
2020/12/06 05:56:26;;;;;;;20.23;15.03;;;;;;;6.27;83.20;100401.69;1627587;85;25823;-80
2020/12/06 05:58:53;;;;;;;20.60;14.75;;;;;;;6.29;83.23;100406.75;1653889;84;25697;-80
2020/12/06 06:01:22;;;;;;;20.30;15.93;;;;;;;6.31;83.13;100412.63;1651091;84;26407;-80
2020/12/06 06:03:52;;;;;;;22.48;15.23;;;;;;;6.33;83.04;100408.95;1664929;84;26198;-80
2020/12/06 06:06:39;;;;;;;24.18;17.55;;;;;;;6.31;82.94;100410.85;1662607;84;32531;-80
2020/12/06 06:09:07;;;;;;;24.12;16.30;;;;;;;6.27;82.87;100414.66;1663313;84;26047;-79
2020/12/06 06:11:40;;;;;;;21.70;16.48;;;;;;;6.25;82.98;100415.30;1658679;84;25630;-80
2020/12/06 06:14:08;;;;;;;17.60;13.15;;;;;;;6.19;82.89;100410.17;1622763;85;26854;-80
2020/12/06 06:16:36;;;;;;;19.02;13.95;;;;;;;6.16;82.93;100413.02;1629446;85;26484;-79
2020/12/06 06:19:05;;;;;;;17.90;14.20;;;;;;;6.12;82.84;100412.95;1614775;86;25865;-80
2020/12/06 06:21:37;;;;;;;16.55;13.62;;;;;;;6.09;82.86;100411.92;1607317;86;25825;-80
2020/12/06 06:24:16;;;;;;;18.77;14.47;;;;;;;6.10;82.91;100408.85;1612081;86;25872;-80
2020/12/06 06:26:47;;;;;;;19.10;14.93;;;;;;;6.12;82.92;100414.73;1599627;86;25809;-80
2020/12/06 06:29:15;;;;;;;;;;;;;;;6.15;82.93;100424.36;1604239;87;25809;-80
2020/12/06 06:31:45;;;;;;;22.60;16.80;;;;;;;6.15;82.78;100419.17;1617990;86;25776;-80
2020/12/06 06:34:12;;;;;;;21.70;17.65;;;;;;;6.14;82.82;100420.61;1598838;87;25730;-80
2020/12/06 06:36:38;;;;;;;23.32;17.60;;;;;;;6.13;82.75;100426.74;1605923;86;25914;-80
2020/12/06 06:39:05;;;;;;;23.20;16.48;;;;;;;6.08;82.72;100420.65;1608610;86;26547;-80
2020/12/06 06:41:37;;;;;;;21.02;15.30;;;;;;;6.04;82.72;100417.99;1609689;86;25761;-80
2020/12/06 06:44:05;;;;;;;20.65;15.93;;;;;;;6.00;82.65;100421.80;1589507;86;26518;-80
2020/12/06 06:46:35;;;;;;;18.98;16.05;;;;;;;5.98;82.71;100417.23;1601922;86;26407;-79
2020/12/06 06:49:10;;;;;;;19.75;15.88;;;;;;;5.97;82.77;100413.83;1602109;86;26367;-79
2020/12/06 06:51:37;;;;;;;19.77;14.47;;;;;;;5.97;82.71;100422.91;1653612;84;25746;-80
2020/12/06 06:54:08;;;;;;;19.73;15.30;;;;;;;5.98;82.78;100423.73;1665866;83;26280;-80
2020/12/06 06:56:54;;;;;;;19.70;15.53;;;;;;;5.99;82.72;100433.95;1646963;85;25698;-80
2020/12/06 06:59:45;;;;;;;19.27;15.63;;;;;;;5.97;82.60;100431.14;1653954;84;26357;-79
2020/12/06 07:02:36;;;;;;;21.90;17.25;;;;;;;5.96;82.57;100431.62;1641806;84;25813;-80
2020/12/06 07:05:13;;;;;;;19.77;15.90;;;;;;;5.91;82.55;100429.06;1636093;85;25709;-79
2020/12/06 07:07:53;;;;;;;16.97;13.78;;;;;;;5.86;82.62;100434.64;1602862;86;25751;-79
2020/12/06 07:10:24;;;;;;;17.77;13.80;;;;;;;5.85;82.61;100437.38;1617295;85;25716;-79
2020/12/06 07:12:53;;;;;;;;;;;;;;;5.83;82.65;100434.91;1612327;86;25838;-80
2020/12/06 07:15:23;;;;;;;17.62;12.80;;;;;;;5.82;82.56;100436.35;1655204;84;26686;-80
2020/12/06 07:17:51;;;;;;;17.37;13.50;;;;;;;5.81;82.59;100443.77;1648059;84;25913;-80
2020/12/06 07:20:20;;;;;;;17.60;14.00;;;;;;;5.81;82.62;100438.13;1652922;84;25773;-80
2020/12/06 07:22:47;;;;;;;19.87;13.60;;;;;;;5.85;82.64;100438.67;1647106;84;25853;-81
2020/12/06 07:25:16;;;;;;;17.82;14.63;;;;;;;5.83;82.51;100434.91;1647545;84;25805;-82
2020/12/06 07:27:42;;;;;;;17.20;14.50;;;;;;;5.83;82.49;100440.58;1655239;84;25789;-79
2020/12/06 07:30:12;;;;;;;18.15;12.30;;;;;;;5.78;82.45;100439.66;1655231;84;25781;-79
2020/12/06 07:32:38;;;;;;;17.40;13.40;;;;;;;5.74;82.39;100442.19;1656382;84;26217;-79
2020/12/06 07:35:08;;;;;;;16.45;12.03;;;;;;;5.72;82.47;100452.68;1672258;83;25964;-78
2020/12/06 07:37:34;;;;;;;15.65;12.93;;;;;;;5.72;82.48;100447.98;1699647;83;25760;-79
2020/12/06 07:40:06;;;;;;;17.20;13.78;;;;;;;5.72;82.41;100455.27;1695221;83;25857;-79
2020/12/06 07:42:32;;;;;;;17.15;14.07;;;;;;;5.73;82.39;100460.02;1690752;83;25794;-79
2020/12/06 07:45:00;;;;;;;16.62;14.65;;;;;;;5.75;82.37;100464.56;1688635;83;25755;-79
2020/12/06 07:47:27;;;;;;;19.02;13.98;;;;;;;5.73;82.45;100471.20;1684558;83;26595;-79
2020/12/06 07:49:56;;;;;;;17.12;13.35;;;;;;;5.75;82.34;100468.45;1690032;83;25678;-79
2020/12/06 07:52:29;;;;;;;15.68;12.55;;;;;;;5.73;82.39;100460.83;1689323;83;25333;-79
2020/12/06 07:55:08;;;;;;;15.60;12.55;;;;;;;5.75;82.31;100460.67;1690516;83;25918;-79
2020/12/06 07:57:52;;;;;;;13.58;11.70;;;;;;;5.73;82.29;100454.83;1681321;83;25810;-79
2020/12/06 08:00:22;;;;;;;15.45;12.23;;;;;;;5.73;82.21;100456.12;1685696;83;25459;-79
2020/12/06 08:02:55;;;;;;;17.55;14.80;;;;;;;5.71;82.12;100460.13;1685372;83;26451;-79
2020/12/06 08:05:26;;;;;;;18.12;15.13;;;;;;;5.69;82.07;100455.55;1682107;83;25808;-79
2020/12/06 08:08:14;;;;;;;18.17;14.20;;;;;;;5.67;82.09;100449.66;1682579;83;25825;-80
2020/12/06 08:10:42;;;;;;;19.00;13.68;;;;;;;5.64;82.08;100446.52;1685473;83;25760;-79
2020/12/06 08:13:12;;;;;;;18.25;14.15;;;;;;;5.59;82.07;100451.27;1683913;83;25722;-79
2020/12/06 08:15:38;;;;;;;15.50;12.95;;;;;;;5.56;82.10;100442.83;1691699;83;26245;-79
2020/12/06 08:18:14;;;;;;;14.25;11.25;;;;;;;5.57;82.14;100452.72;1691023;83;25748;-79
2020/12/06 08:20:41;;;;;;;15.68;11.63;;;;;;;5.58;82.08;100454.82;1686465;83;25851;-79
2020/12/06 08:23:07;;;;;;;21.68;13.98;;;;;;;5.58;82.09;100453.53;1671157;84;25383;-79
2020/12/06 08:25:38;;;;;;;19.40;14.38;;;;;;;5.59;82.07;100448.67;1710858;82;25764;-79
2020/12/06 08:28:04;;;;;;;20.08;14.23;;;;;;;5.55;81.98;100458.02;1688085;83;25853;-79
2020/12/06 08:30:31;;;;;;;16.10;13.22;;;;;;;5.53;81.97;100452.61;1691545;83;26411;-79
2020/12/06 08:33:02;;;;;;;16.07;12.55;;;;;;;5.48;81.96;100448.28;1685787;83;25821;-79
2020/12/06 08:35:48;;;;;;;23.90;17.27;;;;;;;5.49;82.13;100458.54;1687207;82;25720;-78
2020/12/06 08:38:21;;;;;;;28.67;18.62;;;;;;;5.52;82.14;100456.16;1693520;82;26431;-79
2020/12/06 08:41:05;;;;;;;35.40;23.87;;;;;;;5.54;82.07;100456.87;1688495;82;26522;-79
2020/12/06 08:43:47;;;;;;;38.58;27.00;;;;;;;5.59;82.16;100458.56;1692853;82;25693;-79
2020/12/06 08:46:25;;;;;;;24.32;18.40;;;;;;;5.63;82.13;100454.78;1695102;82;25981;-79
2020/12/06 08:48:55;;;;;;;27.67;20.23;;;;;;;5.65;82.04;100449.47;1683360;82;25698;-79
2020/12/06 08:51:39;;;;;;;33.95;25.65;;;;;;;5.65;82.00;100446.40;1690287;82;25917;-79
2020/12/06 08:54:08;;;;;;;24.65;15.93;;;;;;;5.65;81.89;100447.70;1696170;82;25729;-79
2020/12/06 08:56:43;;;;;;;24.87;17.92;;;;;;;5.63;81.81;100438.41;1623276;85;26272;-79
2020/12/06 08:59:13;;;;;;;30.50;24.27;;;;;;;5.60;81.56;100435.59;1645834;85;25813;-80
2020/12/06 09:01:55;;;;;;;23.35;20.30;;;;;;;5.55;81.56;100441.16;1686650;83;25824;-80
2020/12/06 09:04:22;;;;;;;22.95;19.48;;;;;;;5.55;81.72;100438.57;1685367;83;25718;-80
2020/12/06 09:06:52;;;;;;;18.62;14.93;;;;;;;5.55;81.73;100441.16;1702326;82;25796;-79
2020/12/06 09:09:19;;;;;;;18.27;14.40;;;;;;;5.55;81.81;100445.53;1701620;82;32545;-79
2020/12/06 09:11:45;;;;;;;14.30;11.53;;;;;;;5.54;81.63;100436.13;1686084;83;27142;-79
2020/12/06 09:14:11;;;;;;;15.60;12.55;;;;;;;5.53;81.58;100441.77;1696520;82;25772;-80
2020/12/06 09:16:41;;;;;;;16.25;12.88;;;;;;;5.51;81.45;100429.87;1702465;82;26600;-80
2020/12/06 09:19:09;;;;;;;19.03;15.10;;;;;;;5.52;81.50;100445.31;1707126;82;25785;-79
2020/12/06 09:21:35;;;;;;;17.95;15.28;;;;;;;5.53;81.34;100438.35;1695580;82;25766;-79
2020/12/06 09:24:02;;;;;;;19.57;16.00;;;;;;;5.52;81.36;100442.72;1700263;82;25860;-79
2020/12/06 09:26:28;;;;;;;23.75;17.52;;;;;;;5.50;81.39;100434.25;1703981;82;26316;-79
2020/12/06 09:28:54;;;;;;;21.95;17.27;;;;;;;5.50;81.43;100429.06;1696489;82;26360;-79
2020/12/06 09:31:22;;;;;;;19.87;14.87;;;;;;;5.50;81.27;100428.25;1698728;82;26300;-79
2020/12/06 09:33:49;;;;;;;21.23;16.02;;;;;;;5.50;81.19;100435.55;1686571;82;25809;-79
2020/12/06 09:36:15;;;;;;;17.77;14.60;;;;;;;5.50;81.17;100434.73;1689476;82;25875;-80
2020/12/06 09:38:41;;;;;;;19.55;14.10;;;;;;;5.49;81.11;100438.28;1688994;83;25819;-80
2020/12/06 09:41:12;;;;;;;20.17;15.38;;;;;;;5.46;81.00;100440.66;1697450;83;26308;-80
2020/12/06 09:43:36;;;;;;;18.42;14.20;;;;;;;5.44;81.12;100440.44;1691144;83;26325;-80
2020/12/06 09:46:02;;;;;;;18.75;13.70;;;;;;;5.42;81.20;100442.33;1693575;83;25746;-80
2020/12/06 09:48:29;;;;;;;16.73;12.93;;;;;;;5.43;81.12;100440.92;1690384;83;26443;-80
2020/12/06 09:50:55;;;;;;;18.35;12.73;;;;;;;5.43;81.02;100429.26;1680303;83;25764;-80
2020/12/06 09:53:21;;;;;;;21.27;14.68;;;;;;;5.41;80.96;100437.63;1691346;83;25730;-80
2020/12/06 09:55:48;;;;;;;16.30;13.95;;;;;;;5.44;81.04;100431.38;1679607;83;26570;-79
2020/12/06 09:58:14;;;;;;;17.10;15.03;;;;;;;5.45;81.05;100435.11;1693134;83;26427;-80
2020/12/06 10:00:42;;;;;;;16.85;14.10;;;;;;;5.46;81.00;100421.70;1688095;83;25681;-80
2020/12/06 10:03:08;;;;;;;17.07;14.30;;;;;;;5.49;81.07;100414.95;1687339;83;25674;-80
2020/12/06 10:05:35;;;;;;;16.57;12.65;;;;;;;5.48;80.93;100414.59;1668479;84;25927;-80
2020/12/06 10:08:01;;;;;;;15.75;13.62;;;;;;;5.49;80.82;100401.99;1670805;83;26141;-80
2020/12/06 10:10:27;;;;;;;16.37;12.28;;;;;;;5.47;80.76;100413.78;1685866;83;25740;-80
2020/12/06 10:12:56;;;;;;;18.10;13.55;;;;;;;5.44;80.65;100407.56;1686030;82;26357;-80
2020/12/06 10:15:22;;;;;;;18.27;15.30;;;;;;;5.45;80.70;100405.78;1684926;83;26369;-80
2020/12/06 10:17:49;;;;;;;19.12;14.78;;;;;;;5.44;80.58;100402.38;1693608;82;25765;-79
2020/12/06 10:20:18;;;;;;;26.33;18.27;;;;;;;5.41;80.53;100409.13;1686202;83;25330;-80
2020/12/06 10:22:43;;;;;;;24.82;16.70;;;;;;;5.42;80.60;100411.23;1686127;83;25945;-80
2020/12/06 10:25:10;;;;;;;18.00;13.98;;;;;;;5.42;80.64;100406.05;1687097;83;25714;-80
2020/12/06 10:27:36;;;;;;;15.20;12.45;;;;;;;5.41;80.61;100411.71;1687436;82;25788;-79
2020/12/06 10:30:05;;;;;;;17.35;12.98;;;;;;;5.38;80.48;100420.23;1689813;83;26443;-80
2020/12/06 10:32:32;;;;;;;14.60;11.60;;;;;;;5.37;80.62;100424.57;1684249;82;26151;-80
2020/12/06 10:34:58;;;;;;;14.98;11.75;;;;;;;5.38;80.53;100424.94;1692382;83;26266;-79
2020/12/06 10:37:25;;;;;;;15.50;12.58;;;;;;;5.41;80.53;100418.67;1683695;83;25715;-79
2020/12/06 10:39:51;;;;;;;16.57;13.90;;;;;;;5.43;80.58;100412.41;1677780;83;25753;-79
2020/12/06 10:42:18;;;;;;;18.67;14.28;;;;;;;5.45;80.44;100429.11;1704923;82;25942;-80
2020/12/06 10:44:44;;;;;;;18.65;13.45;;;;;;;5.46;80.44;100417.81;1691783;81;25898;-80
2020/12/06 10:47:11;;;;;;;15.63;13.18;;;;;;;5.44;80.40;100424.41;1695031;82;26285;-79
2020/12/06 10:49:43;;;;;;;17.32;14.05;;;;;;;5.43;80.30;100414.16;1690949;82;25834;-79
2020/12/06 10:52:11;;;;;;;15.25;11.50;;;;;;;5.39;80.23;100415.38;1702933;82;25815;-80
2020/12/06 10:54:38;;;;;;;16.80;10.70;;;;;;;5.37;80.29;100409.50;1704063;82;26527;-79
2020/12/06 10:57:07;;;;;;;14.33;11.33;;;;;;;5.34;80.19;100404.91;1693830;82;25826;-79
2020/12/06 10:59:35;;;;;;;13.58;10.55;;;;;;;5.35;80.29;100412.24;1710718;82;25749;-79
2020/12/06 11:02:03;;;;;;;13.83;11.63;;;;;;;5.35;80.16;100414.83;1699524;82;25857;-79
2020/12/06 11:04:30;;;;;;;16.35;13.20;;;;;;;5.32;79.98;100413.80;1703020;82;25911;-79
2020/12/06 11:06:59;;;;;;;16.82;13.75;;;;;;;5.29;79.99;100412.28;1696464;82;26256;-79
2020/12/06 11:09:27;;;;;;;19.07;13.43;;;;;;;5.27;80.01;100419.36;1694128;82;25768;-79
2020/12/06 11:11:55;;;;;;;17.57;14.10;;;;;;;5.23;80.03;100415.85;1697280;82;25754;-79
2020/12/06 11:14:22;;;;;;;16.07;12.35;;;;;;;5.24;80.21;100420.10;1693277;82;25736;-79
2020/12/06 11:16:55;;;;;;;16.52;11.73;;;;;;;5.24;80.08;100410.55;1692063;82;25808;-79
2020/12/06 11:19:24;;;;;;;18.50;11.97;;;;;;;5.19;80.02;100400.23;1679400;83;25789;-78
2020/12/06 11:21:53;;;;;;;15.40;11.33;;;;;;;5.20;80.10;100409.16;1695110;83;26556;-78
2020/12/06 11:24:20;;;;;;;17.50;13.72;;;;;;;5.23;80.08;100401.60;1696422;82;25747;-78